sensor_id;sensor_type;location;lat;lon;timestamp;pressure;altitude;pressure_sealevel;temperature;humidity
84267;BME280;74414;51.098;13.716;2024-03-23T00:55:49;99137.22;;;7.88;82.44
84267;BME280;74414;51.098;13.716;2024-03-23T00:58:14;99136.72;;;7.82;82.43
84267;BME280;74414;51.098;13.716;2024-03-23T01:00:39;99149.19;;;7.73;82.81
84267;BME280;74414;51.098;13.716;2024-03-23T01:03:04;99142.34;;;7.63;83.28
84267;BME280;74414;51.098;13.716;2024-03-23T01:05:30;99142.63;;;7.58;83.42
84267;BME280;74414;51.098;13.716;2024-03-23T01:07:55;99139.53;;;7.60;83.58
84267;BME280;74414;51.098;13.716;2024-03-23T01:10:21;99141.75;;;7.54;83.93
84267;BME280;74414;51.098;13.716;2024-03-23T01:12:46;99143.31;;;7.52;83.90
84267;BME280;74414;51.098;13.716;2024-03-23T01:15:12;99128.25;;;7.46;84.31
84267;BME280;74414;51.098;13.716;2024-03-23T01:17:37;99135.22;;;7.40;84.65
84267;BME280;74414;51.098;13.716;2024-03-23T01:20:03;99132.72;;;7.31;84.73
84267;BME280;74414;51.098;13.716;2024-03-23T01:22:29;99120.78;;;7.23;84.78
84267;BME280;74414;51.098;13.716;2024-03-23T01:24:54;99111.22;;;7.17;85.39
84267;BME280;74414;51.098;13.716;2024-03-23T01:27:20;99106.84;;;7.13;85.73
84267;BME280;74414;51.098;13.716;2024-03-23T01:29:45;99108.63;;;7.02;85.72
84267;BME280;74414;51.098;13.716;2024-03-23T01:32:10;99113.97;;;6.95;86.00
84267;BME280;74414;51.098;13.716;2024-03-23T01:34:36;99115.00;;;6.87;85.95
84267;BME280;74414;51.098;13.716;2024-03-23T01:37:01;99106.81;;;6.90;86.25
84267;BME280;74414;51.098;13.716;2024-03-23T01:39:27;99104.91;;;6.94;86.62
84267;BME280;74414;51.098;13.716;2024-03-23T01:41:52;99103.09;;;7.02;86.88
84267;BME280;74414;51.098;13.716;2024-03-23T01:44:17;99099.25;;;7.06;87.52
84267;BME280;74414;51.098;13.716;2024-03-23T01:46:43;99101.03;;;7.18;87.58
84267;BME280;74414;51.098;13.716;2024-03-23T01:49:09;99102.50;;;7.34;87.67
84267;BME280;74414;51.098;13.716;2024-03-23T01:51:36;99097.47;;;7.40;87.40
84267;BME280;74414;51.098;13.716;2024-03-23T01:54:02;99096.72;;;7.43;87.00
84267;BME280;74414;51.098;13.716;2024-03-23T01:56:37;99083.50;;;7.52;87.09
84267;BME280;74414;51.098;13.716;2024-03-23T01:59:06;99080.00;;;7.55;86.71
84267;BME280;74414;51.098;13.716;2024-03-23T02:01:32;99089.50;;;7.58;86.59
84267;BME280;74414;51.098;13.716;2024-03-23T02:03:58;99087.66;;;7.65;86.75
84267;BME280;74414;51.098;13.716;2024-03-23T02:06:24;99094.13;;;7.76;86.48
84267;BME280;74414;51.098;13.716;2024-03-23T02:08:50;99076.16;;;7.86;86.25
84267;BME280;74414;51.098;13.716;2024-03-23T02:11:16;99077.03;;;7.93;86.12
84267;BME280;74414;51.098;13.716;2024-03-23T02:13:42;99077.56;;;8.02;85.79
84267;BME280;74414;51.098;13.716;2024-03-23T02:16:08;99073.28;;;8.05;84.92
84267;BME280;74414;51.098;13.716;2024-03-23T02:18:34;99064.72;;;8.13;84.51
84267;BME280;74414;51.098;13.716;2024-03-23T02:21:00;99056.91;;;8.19;84.07
84267;BME280;74414;51.098;13.716;2024-03-23T02:23:26;99051.03;;;8.20;83.99
84267;BME280;74414;51.098;13.716;2024-03-23T02:25:51;99035.59;;;8.16;83.97
84267;BME280;74414;51.098;13.716;2024-03-23T02:28:19;99036.72;;;8.11;84.21
84267;BME280;74414;51.098;13.716;2024-03-23T02:30:45;99039.06;;;8.09;84.30
84267;BME280;74414;51.098;13.716;2024-03-23T02:33:11;99033.91;;;8.08;84.53
84267;BME280;74414;51.098;13.716;2024-03-23T02:35:37;99032.00;;;8.12;84.68
84267;BME280;74414;51.098;13.716;2024-03-23T02:38:02;99031.69;;;8.17;84.79
84267;BME280;74414;51.098;13.716;2024-03-23T02:40:29;99023.03;;;8.18;84.63
84267;BME280;74414;51.098;13.716;2024-03-23T02:42:56;99021.84;;;8.19;84.71
84267;BME280;74414;51.098;13.716;2024-03-23T02:45:21;99028.59;;;8.22;84.59
84267;BME280;74414;51.098;13.716;2024-03-23T02:47:47;99026.31;;;8.27;84.64
84267;BME280;74414;51.098;13.716;2024-03-23T02:50:18;99022.47;;;8.36;84.72
84267;BME280;74414;51.098;13.716;2024-03-23T02:52:44;99019.34;;;8.37;84.44
84267;BME280;74414;51.098;13.716;2024-03-23T02:55:10;99014.59;;;8.34;84.55
84267;BME280;74414;51.098;13.716;2024-03-23T02:57:36;99009.03;;;8.31;84.34
84267;BME280;74414;51.098;13.716;2024-03-23T03:00:02;99011.38;;;8.29;84.33
84267;BME280;74414;51.098;13.716;2024-03-23T03:02:27;99005.50;;;8.34;84.43
84267;BME280;74414;51.098;13.716;2024-03-23T03:04:53;99004.81;;;8.40;84.16
84267;BME280;74414;51.098;13.716;2024-03-23T03:07:18;99001.66;;;8.42;83.65
84267;BME280;74414;51.098;13.716;2024-03-23T03:09:43;98998.97;;;8.49;83.39
84267;BME280;74414;51.098;13.716;2024-03-23T03:12:09;98999.03;;;8.52;82.89
84267;BME280;74414;51.098;13.716;2024-03-23T03:14:34;99001.31;;;8.47;83.15
84267;BME280;74414;51.098;13.716;2024-03-23T03:17:00;99000.13;;;8.44;83.27
84267;BME280;74414;51.098;13.716;2024-03-23T03:19:26;98984.69;;;8.40;83.38
84267;BME280;74414;51.098;13.716;2024-03-23T03:21:52;98979.16;;;8.40;83.56
84267;BME280;74414;51.098;13.716;2024-03-23T03:24:18;98974.50;;;8.44;83.64
84267;BME280;74414;51.098;13.716;2024-03-23T03:26:44;98972.94;;;8.46;83.56
84267;BME280;74414;51.098;13.716;2024-03-23T03:29:09;98974.56;;;8.51;83.49
84267;BME280;74414;51.098;13.716;2024-03-23T03:31:36;98970.69;;;8.59;83.63
84267;BME280;74414;51.098;13.716;2024-03-23T03:34:01;98975.06;;;8.60;83.31
84267;BME280;74414;51.098;13.716;2024-03-23T03:36:27;98977.81;;;8.60;83.31
84267;BME280;74414;51.098;13.716;2024-03-23T03:38:54;98983.00;;;8.65;83.48
84267;BME280;74414;51.098;13.716;2024-03-23T03:41:19;98974.31;;;8.66;83.25
84267;BME280;74414;51.098;13.716;2024-03-23T03:43:44;98962.91;;;8.68;83.04
84267;BME280;74414;51.098;13.716;2024-03-23T03:46:10;98948.63;;;8.59;83.21
84267;BME280;74414;51.098;13.716;2024-03-23T03:48:36;98950.91;;;8.50;83.44
84267;BME280;74414;51.098;13.716;2024-03-23T03:51:02;98948.16;;;8.50;83.74
84267;BME280;74414;51.098;13.716;2024-03-23T03:53:28;98947.00;;;8.54;83.67
84267;BME280;74414;51.098;13.716;2024-03-23T03:55:53;98952.94;;;8.56;83.62
84267;BME280;74414;51.098;13.716;2024-03-23T03:58:19;98952.16;;;8.56;83.77
84267;BME280;74414;51.098;13.716;2024-03-23T04:00:44;98947.06;;;8.58;83.83
84267;BME280;74414;51.098;13.716;2024-03-23T04:03:10;98937.16;;;8.53;83.66
84267;BME280;74414;51.098;13.716;2024-03-23T04:05:35;98939.91;;;8.53;84.10
84267;BME280;74414;51.098;13.716;2024-03-23T04:08:01;98932.06;;;8.59;83.92
84267;BME280;74414;51.098;13.716;2024-03-23T04:10:26;98936.78;;;8.58;83.90
84267;BME280;74414;51.098;13.716;2024-03-23T04:12:52;98921.78;;;8.52;84.13
84267;BME280;74414;51.098;13.716;2024-03-23T04:15:19;98919.38;;;8.51;84.43
84267;BME280;74414;51.098;13.716;2024-03-23T04:17:44;98917.81;;;8.50;84.41
84267;BME280;74414;51.098;13.716;2024-03-23T04:20:10;98909.13;;;8.48;84.48
84267;BME280;74414;51.098;13.716;2024-03-23T04:22:37;98897.19;;;8.37;84.76
84267;BME280;74414;51.098;13.716;2024-03-23T04:25:02;98896.28;;;8.25;85.35
84267;BME280;74414;51.098;13.716;2024-03-23T04:27:35;98892.25;;;8.19;85.42
84267;BME280;74414;51.098;13.716;2024-03-23T04:30:01;98891.44;;;8.15;85.58
84267;BME280;74414;51.098;13.716;2024-03-23T04:32:27;98884.25;;;8.07;85.73
84267;BME280;74414;51.098;13.716;2024-03-23T04:34:53;98888.09;;;7.99;85.71
84267;BME280;74414;51.098;13.716;2024-03-23T04:37:19;98893.25;;;8.04;85.86
84267;BME280;74414;51.098;13.716;2024-03-23T04:39:45;98891.44;;;8.15;86.17
84267;BME280;74414;51.098;13.716;2024-03-23T04:42:10;98898.97;;;8.22;85.93
84267;BME280;74414;51.098;13.716;2024-03-23T04:44:37;98893.88;;;8.24;85.76
84267;BME280;74414;51.098;13.716;2024-03-23T04:47:02;98899.09;;;8.29;85.59
84267;BME280;74414;51.098;13.716;2024-03-23T04:49:28;98891.25;;;8.35;85.26
84267;BME280;74414;51.098;13.716;2024-03-23T04:51:54;98879.47;;;8.38;85.04
84267;BME280;74414;51.098;13.716;2024-03-23T04:54:19;98855.41;;;8.35;85.04
84267;BME280;74414;51.098;13.716;2024-03-23T04:56:45;98824.66;;;8.33;85.11
84267;BME280;74414;51.098;13.716;2024-03-23T04:59:11;98827.78;;;8.31;85.05
84267;BME280;74414;51.098;13.716;2024-03-23T05:01:36;98825.81;;;8.32;85.22
84267;BME280;74414;51.098;13.716;2024-03-23T05:04:03;98811.59;;;8.30;85.20
84267;BME280;74414;51.098;13.716;2024-03-23T05:06:29;98813.59;;;8.29;85.19
84267;BME280;74414;51.098;13.716;2024-03-23T05:08:54;98810.88;;;8.33;85.18
84267;BME280;74414;51.098;13.716;2024-03-23T05:11:19;98808.13;;;8.36;85.07
84267;BME280;74414;51.098;13.716;2024-03-23T05:13:46;98810.09;;;8.36;84.88
84267;BME280;74414;51.098;13.716;2024-03-23T05:16:12;98810.50;;;8.38;85.14
84267;BME280;74414;51.098;13.716;2024-03-23T05:18:37;98798.72;;;8.41;84.77
84267;BME280;74414;51.098;13.716;2024-03-23T05:21:03;98805.84;;;8.45;84.30
84267;BME280;74414;51.098;13.716;2024-03-23T05:23:28;98800.75;;;8.51;84.19
84267;BME280;74414;51.098;13.716;2024-03-23T05:25:54;98792.53;;;8.58;84.03
84267;BME280;74414;51.098;13.716;2024-03-23T05:28:20;98765.75;;;8.62;83.50
84267;BME280;74414;51.098;13.716;2024-03-23T05:30:52;98743.69;;;8.62;83.47
84267;BME280;74414;51.098;13.716;2024-03-23T05:33:19;98755.53;;;8.66;83.36
84267;BME280;74414;51.098;13.716;2024-03-23T05:35:45;98773.66;;;8.67;83.11
84267;BME280;74414;51.098;13.716;2024-03-23T05:38:10;98763.03;;;8.69;82.61
84267;BME280;74414;51.098;13.716;2024-03-23T05:40:35;98744.13;;;8.71;82.46
84267;BME280;74414;51.098;13.716;2024-03-23T05:43:03;98743.72;;;8.65;82.41
84267;BME280;74414;51.098;13.716;2024-03-23T05:45:29;98757.94;;;8.71;82.32
84267;BME280;74414;51.098;13.716;2024-03-23T05:47:54;98765.84;;;8.76;82.33
84267;BME280;74414;51.098;13.716;2024-03-23T05:50:22;98763.53;;;8.85;81.78
84267;BME280;74414;51.098;13.716;2024-03-23T05:52:49;98765.91;;;8.86;81.61
84267;BME280;74414;51.098;13.716;2024-03-23T05:55:14;98767.47;;;8.87;81.45
84267;BME280;74414;51.098;13.716;2024-03-23T05:57:40;98748.53;;;8.86;81.37
84267;BME280;74414;51.098;13.716;2024-03-23T06:00:06;98742.59;;;8.77;81.80
84267;BME280;74414;51.098;13.716;2024-03-23T06:02:35;98733.47;;;8.69;81.93
84267;BME280;74414;51.098;13.716;2024-03-23T06:05:01;98723.16;;;8.56;82.49
84267;BME280;74414;51.098;13.716;2024-03-23T06:07:27;98714.03;;;8.48;82.94
84267;BME280;74414;51.098;13.716;2024-03-23T06:09:52;98711.59;;;8.40;83.44
84267;BME280;74414;51.098;13.716;2024-03-23T06:12:18;98702.94;;;8.38;83.64
84267;BME280;74414;51.098;13.716;2024-03-23T06:14:43;98682.81;;;8.37;83.80
84267;BME280;74414;51.098;13.716;2024-03-23T06:17:08;98682.47;;;8.39;84.11
84267;BME280;74414;51.098;13.716;2024-03-23T06:19:34;98674.13;;;8.32;84.28
84267;BME280;74414;51.098;13.716;2024-03-23T06:21:59;98672.16;;;8.29;84.54
84267;BME280;74414;51.098;13.716;2024-03-23T06:24:25;98665.47;;;8.33;84.59
84267;BME280;74414;51.098;13.716;2024-03-23T06:26:50;98663.16;;;8.39;84.31
84267;BME280;74414;51.098;13.716;2024-03-23T06:29:15;98667.88;;;8.42;83.99
84267;BME280;74414;51.098;13.716;2024-03-23T06:31:41;98658.03;;;8.41;83.76
84267;BME280;74414;51.098;13.716;2024-03-23T06:34:06;98648.97;;;8.40;83.91
84267;BME280;74414;51.098;13.716;2024-03-23T06:36:31;98654.50;;;8.44;83.78
84267;BME280;74414;51.098;13.716;2024-03-23T06:38:58;98648.19;;;8.47;83.85
84267;BME280;74414;51.098;13.716;2024-03-23T06:41:24;98637.56;;;8.49;83.51
84267;BME280;74414;51.098;13.716;2024-03-23T06:43:49;98637.22;;;8.54;83.78
84267;BME280;74414;51.098;13.716;2024-03-23T06:46:15;98624.19;;;8.54;83.88
84267;BME280;74414;51.098;13.716;2024-03-23T06:48:40;98607.63;;;8.47;83.46
84267;BME280;74414;51.098;13.716;2024-03-23T06:51:05;98605.63;;;8.41;83.77
84267;BME280;74414;51.098;13.716;2024-03-23T06:53:31;98594.97;;;8.43;83.83
84267;BME280;74414;51.098;13.716;2024-03-23T06:55:57;98587.50;;;8.40;84.12
84267;BME280;74414;51.098;13.716;2024-03-23T06:58:23;98595.38;;;8.45;84.02
84267;BME280;74414;51.098;13.716;2024-03-23T07:00:49;98594.59;;;8.41;83.90
84267;BME280;74414;51.098;13.716;2024-03-23T07:03:16;98608.34;;;8.37;84.33
84267;BME280;74414;51.098;13.716;2024-03-23T07:05:42;98598.13;;;8.38;84.57
84267;BME280;74414;51.098;13.716;2024-03-23T07:08:07;98611.09;;;8.34;84.86
84267;BME280;74414;51.098;13.716;2024-03-23T07:10:33;98612.69;;;8.35;84.92
84267;BME280;74414;51.098;13.716;2024-03-23T07:12:58;98621.31;;;8.30;85.05
84267;BME280;74414;51.098;13.716;2024-03-23T07:15:24;98627.63;;;8.27;85.38
84267;BME280;74414;51.098;13.716;2024-03-23T07:17:50;98627.22;;;8.24;85.53
84267;BME280;74414;51.098;13.716;2024-03-23T07:20:15;98620.06;;;8.23;86.04
84267;BME280;74414;51.098;13.716;2024-03-23T07:22:40;98615.75;;;8.22;86.23
84267;BME280;74414;51.098;13.716;2024-03-23T07:25:06;98589.34;;;8.21;86.17
84267;BME280;74414;51.098;13.716;2024-03-23T07:27:32;98566.91;;;8.23;86.48
84267;BME280;74414;51.098;13.716;2024-03-23T07:29:57;98574.44;;;8.30;86.50
84267;BME280;74414;51.098;13.716;2024-03-23T07:32:23;98565.47;;;8.50;86.78
84267;BME280;74414;51.098;13.716;2024-03-23T07:34:48;98558.78;;;8.55;85.81
84267;BME280;74414;51.098;13.716;2024-03-23T07:37:13;98547.34;;;8.56;85.49
84267;BME280;74414;51.098;13.716;2024-03-23T07:39:39;98545.78;;;8.52;85.29
84267;BME280;74414;51.098;13.716;2024-03-23T07:42:05;98543.44;;;8.57;85.59
84267;BME280;74414;51.098;13.716;2024-03-23T07:44:30;98550.91;;;8.57;85.50
84267;BME280;74414;51.098;13.716;2024-03-23T07:46:56;98532.78;;;8.56;85.24
84267;BME280;74414;51.098;13.716;2024-03-23T07:49:21;98529.63;;;8.50;85.17
84267;BME280;74414;51.098;13.716;2024-03-23T07:51:47;98518.16;;;8.45;84.84
84267;BME280;74414;51.098;13.716;2024-03-23T07:54:12;98510.66;;;8.35;85.10
84267;BME280;74414;51.098;13.716;2024-03-23T07:56:37;98503.94;;;8.39;85.66
84267;BME280;74414;51.098;13.716;2024-03-23T07:59:03;98498.47;;;8.50;85.95
84267;BME280;74414;51.098;13.716;2024-03-23T08:01:29;98488.25;;;8.64;85.89
84267;BME280;74414;51.098;13.716;2024-03-23T08:03:54;98490.25;;;8.74;85.51
84267;BME280;74414;51.098;13.716;2024-03-23T08:06:20;98472.53;;;8.79;85.05
84267;BME280;74414;51.098;13.716;2024-03-23T08:08:48;98472.13;;;9.01;85.53
84267;BME280;74414;51.098;13.716;2024-03-23T08:11:14;98466.22;;;9.06;84.64
84267;BME280;74414;51.098;13.716;2024-03-23T08:13:41;98475.69;;;9.20;84.46
84267;BME280;74414;51.098;13.716;2024-03-23T08:16:07;98453.59;;;9.23;83.96
84267;BME280;74414;51.098;13.716;2024-03-23T08:18:34;98447.28;;;9.19;83.68
84267;BME280;74414;51.098;13.716;2024-03-23T08:21:01;98448.47;;;9.25;83.69
84267;BME280;74414;51.098;13.716;2024-03-23T08:23:31;98450.38;;;9.49;83.84
84267;BME280;74414;51.098;13.716;2024-03-23T08:26:11;98436.91;;;9.72;83.19
84267;BME280;74414;51.098;13.716;2024-03-23T08:28:38;98428.88;;;10.13;82.43
84267;BME280;74414;51.098;13.716;2024-03-23T08:31:07;98423.91;;;10.52;80.45
84267;BME280;74414;51.098;13.716;2024-03-23T08:33:33;98424.78;;;10.39;80.11
84267;BME280;74414;51.098;13.716;2024-03-23T08:36:00;98411.44;;;10.23;80.90
84267;BME280;74414;51.098;13.716;2024-03-23T08:38:27;98415.38;;;10.22;81.66
84267;BME280;74414;51.098;13.716;2024-03-23T08:41:03;98411.94;;;10.00;81.07
84267;BME280;74414;51.098;13.716;2024-03-23T08:43:30;98419.44;;;10.00;82.46
84267;BME280;74414;51.098;13.716;2024-03-23T08:46:08;98425.78;;;9.90;82.96
84267;BME280;74414;51.098;13.716;2024-03-23T08:48:35;98428.22;;;9.74;83.01
84267;BME280;74414;51.098;13.716;2024-03-23T08:51:05;98423.53;;;9.53;83.44
84267;BME280;74414;51.098;13.716;2024-03-23T08:53:30;98425.94;;;9.44;83.97
84267;BME280;74414;51.098;13.716;2024-03-23T08:55:56;98429.09;;;9.39;84.32
84267;BME280;74414;51.098;13.716;2024-03-23T08:58:24;98427.13;;;9.47;83.55
84267;BME280;74414;51.098;13.716;2024-03-23T09:00:50;98424.22;;;9.85;83.55
84267;BME280;74414;51.098;13.716;2024-03-23T09:03:16;98432.44;;;10.14;81.68
84267;BME280;74414;51.098;13.716;2024-03-23T09:05:41;98438.63;;;10.39;79.74
84267;BME280;74414;51.098;13.716;2024-03-23T09:08:07;98431.69;;;10.71;78.88
84267;BME280;74414;51.098;13.716;2024-03-23T09:10:42;98427.44;;;10.60;77.17
84267;BME280;74414;51.098;13.716;2024-03-23T09:13:08;98425.69;;;10.80;77.93
84267;BME280;74414;51.098;13.716;2024-03-23T09:15:35;98419.84;;;10.67;77.38
84267;BME280;74414;51.098;13.716;2024-03-23T09:18:01;98429.50;;;10.42;79.12
84267;BME280;74414;51.098;13.716;2024-03-23T09:20:26;98420.06;;;10.36;80.34
84267;BME280;74414;51.098;13.716;2024-03-23T09:22:52;98428.03;;;10.27;80.05
84267;BME280;74414;51.098;13.716;2024-03-23T09:25:17;98422.19;;;10.00;80.74
84267;BME280;74414;51.098;13.716;2024-03-23T09:27:42;98424.94;;;10.03;82.05
84267;BME280;74414;51.098;13.716;2024-03-23T09:30:08;98436.00;;;10.11;80.82
84267;BME280;74414;51.098;13.716;2024-03-23T09:32:35;98431.25;;;10.07;79.95
84267;BME280;74414;51.098;13.716;2024-03-23T09:35:00;98440.72;;;10.06;79.96
84267;BME280;74414;51.098;13.716;2024-03-23T09:37:25;98454.78;;;10.44;77.48
84267;BME280;74414;51.098;13.716;2024-03-23T09:39:51;98467.28;;;10.73;77.35
84267;BME280;74414;51.098;13.716;2024-03-23T09:42:16;98475.97;;;10.75;76.04
84267;BME280;74414;51.098;13.716;2024-03-23T09:44:42;98472.00;;;10.79;76.33
84267;BME280;74414;51.098;13.716;2024-03-23T09:47:08;98492.19;;;10.73;76.09
84267;BME280;74414;51.098;13.716;2024-03-23T09:49:34;98502.88;;;10.71;77.30
84267;BME280;74414;51.098;13.716;2024-03-23T09:52:02;98521.22;;;10.44;76.60
84267;BME280;74414;51.098;13.716;2024-03-23T09:54:28;98534.75;;;10.06;77.56
84267;BME280;74414;51.098;13.716;2024-03-23T09:56:53;98553.38;;;9.74;76.89
84267;BME280;74414;51.098;13.716;2024-03-23T09:59:18;98569.16;;;9.00;77.14
84267;BME280;74414;51.098;13.716;2024-03-23T10:01:44;98594.66;;;8.55;77.70
84267;BME280;74414;51.098;13.716;2024-03-23T10:04:09;98617.00;;;8.29;78.62
84267;BME280;74414;51.098;13.716;2024-03-23T10:06:34;98614.56;;;8.23;79.66
84267;BME280;74414;51.098;13.716;2024-03-23T10:09:00;98636.53;;;8.06;80.43
84267;BME280;74414;51.098;13.716;2024-03-23T10:11:25;98632.81;;;7.84;80.74
84267;BME280;74414;51.098;13.716;2024-03-23T10:13:52;98674.63;;;7.46;79.59
84267;BME280;74414;51.098;13.716;2024-03-23T10:16:22;98696.59;;;7.06;79.13
84267;BME280;74414;51.098;13.716;2024-03-23T10:18:48;98694.78;;;6.87;79.17
84267;BME280;74414;51.098;13.716;2024-03-23T10:21:15;98718.91;;;6.68;79.04
84267;BME280;74414;51.098;13.716;2024-03-23T10:23:42;98736.22;;;6.68;78.85
84267;BME280;74414;51.098;13.716;2024-03-23T10:26:18;98743.09;;;6.55;78.78
84267;BME280;74414;51.098;13.716;2024-03-23T10:29:10;98762.59;;;6.47;78.46
84267;BME280;74414;51.098;13.716;2024-03-23T10:31:37;98791.16;;;6.38;79.34
84267;BME280;74414;51.098;13.716;2024-03-23T10:34:06;98806.03;;;6.34;78.72
84267;BME280;74414;51.098;13.716;2024-03-23T10:36:34;98805.78;;;6.20;78.27
84267;BME280;74414;51.098;13.716;2024-03-23T10:38:59;98828.81;;;6.12;79.47
84267;BME280;74414;51.098;13.716;2024-03-23T10:41:28;98843.66;;;6.07;80.18
84267;BME280;74414;51.098;13.716;2024-03-23T10:43:55;98853.16;;;5.91;79.02
84267;BME280;74414;51.098;13.716;2024-03-23T10:46:21;98872.94;;;5.81;79.76
84267;BME280;74414;51.098;13.716;2024-03-23T10:48:46;98882.63;;;5.55;79.52
84267;BME280;74414;51.098;13.716;2024-03-23T10:51:13;98888.50;;;5.54;80.38
84267;BME280;74414;51.098;13.716;2024-03-23T10:53:39;98904.97;;;5.54;81.35
84267;BME280;74414;51.098;13.716;2024-03-23T10:56:06;98920.31;;;5.55;80.81
84267;BME280;74414;51.098;13.716;2024-03-23T10:58:43;98932.00;;;5.52;80.97
84267;BME280;74414;51.098;13.716;2024-03-23T11:01:13;98946.09;;;5.50;81.32
84267;BME280;74414;51.098;13.716;2024-03-23T11:03:39;98954.13;;;5.59;81.10
84267;BME280;74414;51.098;13.716;2024-03-23T11:06:09;98961.06;;;5.53;79.78
84267;BME280;74414;51.098;13.716;2024-03-23T11:08:39;98979.31;;;5.45;80.44
84267;BME280;74414;51.098;13.716;2024-03-23T11:11:18;98979.09;;;5.54;81.14
84267;BME280;74414;51.098;13.716;2024-03-23T11:13:47;98977.47;;;5.69;81.18
84267;BME280;74414;51.098;13.716;2024-03-23T11:16:21;98981.69;;;5.82;81.27
84267;BME280;74414;51.098;13.716;2024-03-23T11:18:46;98992.75;;;5.85;80.11
84267;BME280;74414;51.098;13.716;2024-03-23T11:24:16;98987.38;;;6.50;80.61
84267;BME280;74414;51.098;13.716;2024-03-23T11:26:41;98985.78;;;6.49;79.62
84267;BME280;74414;51.098;13.716;2024-03-23T11:29:11;98982.53;;;6.66;79.79
84267;BME280;74414;51.098;13.716;2024-03-23T11:31:54;98986.59;;;6.30;78.72
84267;BME280;74414;51.098;13.716;2024-03-23T11:34:20;98994.28;;;6.02;81.04
84267;BME280;74414;51.098;13.716;2024-03-23T11:36:46;98999.06;;;5.86;80.75
84267;BME280;74414;51.098;13.716;2024-03-23T11:39:12;98997.09;;;5.86;81.95
84267;BME280;74414;51.098;13.716;2024-03-23T11:44:20;99016.88;;;5.76;82.20
84267;BME280;74414;51.098;13.716;2024-03-23T11:46:48;99019.25;;;5.78;82.67
84267;BME280;74414;51.098;13.716;2024-03-23T11:49:26;99033.91;;;6.01;82.88
84267;BME280;74414;51.098;13.716;2024-03-23T11:51:53;99036.53;;;5.94;81.11
84267;BME280;74414;51.098;13.716;2024-03-23T11:54:23;99042.03;;;5.94;80.69
84267;BME280;74414;51.098;13.716;2024-03-23T11:56:58;99045.66;;;5.82;81.92
84267;BME280;74414;51.098;13.716;2024-03-23T11:59:39;99049.84;;;5.76;81.75
84267;BME280;74414;51.098;13.716;2024-03-23T12:02:10;99051.31;;;5.89;82.25
84267;BME280;74414;51.098;13.716;2024-03-23T12:04:37;99041.84;;;5.87;81.46
84267;BME280;74414;51.098;13.716;2024-03-23T12:07:10;99039.47;;;6.04;82.20
84267;BME280;74414;51.098;13.716;2024-03-23T12:09:36;99028.00;;;7.01;81.61
84267;BME280;74414;51.098;13.716;2024-03-23T12:14:32;99030.97;;;7.38;76.14
84267;BME280;74414;51.098;13.716;2024-03-23T12:17:13;99033.88;;;6.58;77.48
84267;BME280;74414;51.098;13.716;2024-03-23T12:19:39;99035.91;;;6.61;78.68
84267;BME280;74414;51.098;13.716;2024-03-23T12:22:05;99053.19;;;7.26;78.62
84267;BME280;74414;51.098;13.716;2024-03-23T12:24:32;99025.25;;;7.01;75.61
84267;BME280;74414;51.098;13.716;2024-03-23T12:27:03;99026.50;;;6.62;76.63
84267;BME280;74414;51.098;13.716;2024-03-23T12:29:30;99030.22;;;6.31;78.73
84267;BME280;74414;51.098;13.716;2024-03-23T12:32:00;99034.56;;;6.13;78.89
84267;BME280;74414;51.098;13.716;2024-03-23T12:34:26;99037.53;;;6.05;79.85
84267;BME280;74414;51.098;13.716;2024-03-23T12:36:51;99045.19;;;5.96;80.37
84267;BME280;74414;51.098;13.716;2024-03-23T12:39:16;99040.22;;;6.20;80.22
84267;BME280;74414;51.098;13.716;2024-03-23T12:41:42;99032.47;;;6.68;79.70
84267;BME280;74414;51.098;13.716;2024-03-23T12:44:07;99029.78;;;6.90;76.69
84267;BME280;74414;51.098;13.716;2024-03-23T12:46:36;99020.28;;;6.65;77.70
84267;BME280;74414;51.098;13.716;2024-03-23T12:49:02;99018.47;;;7.21;74.91
84267;BME280;74414;51.098;13.716;2024-03-23T12:51:27;99021.31;;;6.80;75.54
84267;BME280;74414;51.098;13.716;2024-03-23T12:53:52;99028.34;;;6.77;74.79
84267;BME280;74414;51.098;13.716;2024-03-23T12:56:17;99042.38;;;6.50;75.47
84267;BME280;74414;51.098;13.716;2024-03-23T12:58:43;99049.09;;;6.14;76.16
84267;BME280;74414;51.098;13.716;2024-03-23T13:01:09;99054.72;;;6.02;77.62
84267;BME280;74414;51.098;13.716;2024-03-23T13:03:34;99058.94;;;5.96;77.28
84267;BME280;74414;51.098;13.716;2024-03-23T13:06:00;99070.13;;;5.87;77.39
84267;BME280;74414;51.098;13.716;2024-03-23T13:08:25;99071.31;;;6.05;76.56
84267;BME280;74414;51.098;13.716;2024-03-23T13:10:53;99053.66;;;6.25;75.14
84267;BME280;74414;51.098;13.716;2024-03-23T13:13:20;99043.59;;;6.52;74.77
84267;BME280;74414;51.098;13.716;2024-03-23T13:15:50;99030.03;;;6.63;73.60
84267;BME280;74414;51.098;13.716;2024-03-23T13:18:15;99035.13;;;6.61;73.67
84267;BME280;74414;51.098;13.716;2024-03-23T13:20:41;99030.84;;;7.08;73.48
84267;BME280;74414;51.098;13.716;2024-03-23T13:23:07;99055.63;;;7.83;70.16
84267;BME280;74414;51.098;13.716;2024-03-23T13:25:32;99072.38;;;7.97;70.20
84267;BME280;74414;51.098;13.716;2024-03-23T13:27:58;99073.97;;;7.72;69.62
84267;BME280;74414;51.098;13.716;2024-03-23T13:30:23;99098.25;;;7.41;67.86
84267;BME280;74414;51.098;13.716;2024-03-23T13:32:49;99112.03;;;7.18;67.88
84267;BME280;74414;51.098;13.716;2024-03-23T13:35:15;99123.03;;;7.18;69.04
84267;BME280;74414;51.098;13.716;2024-03-23T13:37:40;99118.28;;;7.15;69.37
84267;BME280;74414;51.098;13.716;2024-03-23T13:40:07;99116.44;;;7.22;67.46
84267;BME280;74414;51.098;13.716;2024-03-23T13:42:32;99123.66;;;7.53;68.78
84267;BME280;74414;51.098;13.716;2024-03-23T13:44:58;99113.13;;;8.37;66.51
84267;BME280;74414;51.098;13.716;2024-03-23T13:47:23;99104.16;;;9.57;65.85
84267;BME280;74414;51.098;13.716;2024-03-23T13:49:48;99093.41;;;9.99;61.04
84267;BME280;74414;51.098;13.716;2024-03-23T13:52:14;99088.22;;;10.63;57.88
84267;BME280;74414;51.098;13.716;2024-03-23T13:54:39;99077.53;;;10.61;56.93
84267;BME280;74414;51.098;13.716;2024-03-23T13:57:10;99077.06;;;10.42;56.59
84267;BME280;74414;51.098;13.716;2024-03-23T13:59:35;99074.41;;;9.91;58.08